Terminal Aerodrome Forecast
Issued by NWS

Home | Current Version | Previous Version | Text Only | Print | Product List | Glossary On
Versions: 1 2 3 4 5 6 7 8 9 10 11 12 13 14
000
FTPA31 PHFO 180811 AAA
TAFSTU
TAF AMD
NSTU 180811Z 1808/1906 09008KT 5SM -SHRA VCTS SCT015CB BKN040
      BKN100
      TEMPO 1808/1810 2SM SHRA BR BKN015 OVC035
     FM181400 09008KT P6SM FEW015 SCT040 SCT100=

USA.gov is the U.S. government's official web portal to all federal, state and local government web resources and services.